Historyczne dane pomiarowe

Dodano dane terminowe – wersja testowa.

Dane z okresu 1951-2019

Wersja bazy: 1.34 [2019-03-16, lista zmian], aktualizacja planowana na 2019-04-15

Dane meteo z obszaru Polski uzyskane na podstawie danych udostępnionych przez Instytut Meteorologii i Gospodarki Wodnej – Państwowy Instytut Badawczy.

 

Wybierz Datę:    

       

TemperaturaWilgotnośćZachmurzenieWiatrCiśnienieWidzialnośćZjawiska
 Data    tng td wb rh cc ccl cl cm ch dir g1 g2 mslp ppp      
1973-05-02 00:00:00 10.6--- 2.5 6.456wxwxwxwx12wx--- 835.8 0.0---wx
1973-05-02 01:00:00 11.4------wxwxwxwx8wx--- 835.8----wx
1973-05-02 02:00:00 8.9------wxwxwxwx9wx--- 835.8----wx
1973-05-02 03:00:00 6.4--- 5.7 6.195wxwxwxwx12wx--- 835.5----wx
1973-05-02 04:00:00 6.2------wxwxwxwx10wx--- 835.7----wx
1973-05-02 05:00:00 6.1------wxwxwxwx10wx--- 836.1----wx
1973-05-02 06:00:00 6.0--- 5.5 5.897wxwxwxwxwx10wx--- 836.3 0.0---wx
1973-05-02 07:00:00 6.7------wxwxwxwxwx5wx--- 837.0----wx
1973-05-02 08:00:00 7.6------wxwxwxwx2wx--- 837.1----wx
1973-05-02 09:00:00 8.8--- 5.5 7.080wxwxwxwx2wx--- 837.5----wx
1973-05-02 10:00:00 7.2------wxwxwxwx1wx--- 837.4----wx
1973-05-02 11:00:00 7.8------wxwxwxwx4wx--- 837.4----wx
1973-05-02 12:00:00 8.2--- 7.3 7.494wxwxwx4wx--- 837.4 0.0---wx
1973-05-02 13:00:00 9.6------wxwxwxwx5wx--- 837.3----wx
1973-05-02 14:00:00 9.0------wxwxwx3wx--- 837.0----wx
1973-05-02 15:00:00 9.8--- 7.7 8.686wxwxwxwx3wx--- 836.8----wx
1973-05-02 16:00:00 9.0------wxwxwxwx4wx--- 836.5----wx
1973-05-02 17:00:00 8.4------wxwxwxwx3wx--- 836.0----wx
1973-05-02 18:00:00 8.6--- 7.1 7.891wxwxwxwxwx6wx--- 835.3 0.0---wx
1973-05-02 19:00:00 8.8------wxwxwxwx5wx--- 835.0----wx
1973-05-02 20:00:00 8.8------wxwxwx8wx--- 834.7----wx
1973-05-02 21:00:00 8.4--- 6.2 7.285wxwxwx11wx--- 834.1----wx
1973-05-02 22:00:00 8.0------wxwxwxwx12wx--- 833.7----wx
1973-05-02 23:00:00 7.4------wxwxwxwx12wx--- 833.4----wx

 

Źródłem pochodzenia danych jest Instytut Meteorologii i Gospodarki Wodnej – Państwowy Instytut Badawczy. Dane Instytutu Meteorologii i Gospodarki Wodnej – Państwowego Instytutu Badawczego zostały przetworzone.

Dane źródłowe można odnaleźć na stronie https://dane.imgw.pl